Terminal Aerodrome Forecast
Issued by NWS

Home | Current Version | Previous Version | Text Only | Print | Product List | Glossary On
Versions: 1 2 3 4 5 6 7 8 9 10 11 12 13 14 15 16
004
FTUS41 KBTV 041720
TAFMSS
TAF
KMSS 041720Z 0418/0518 06009KT P6SM VCSH BKN060
     FM042100 05010KT P6SM -SHRA OVC030
     FM050100 08005KT P6SM OVC035
     FM051400 07008KT P6SM SCT060=

USA.gov is the U.S. government's official web portal to all federal, state and local government web resources and services.